Terminal Aerodrome Forecast
Issued by NWS

Home | Current Version | Previous Version | Text Only | Print | Product List | Glossary On
Versions: 1 2 3 4 5 6 7 8 9 10 11 12 13 14
024
FTPA31 PHFO 072328
TAFHMK
TAF
PHMK 072328Z 0800/0824 35015G25KT P6SM FEW030 SCT050
     FM080600 02012G22KT P6SM SCT030 SCT050
     FM081200 02010G18KT P6SM SCT030 SCT050
      AMD NOT SKED=

USA.gov is the U.S. government's official web portal to all federal, state and local government web resources and services.